Latest Weather Observations for Fawkner Beacon

IDV60801

Issued at 5:52 pm EST Saturday 22 September 2018 (issued every 10 minutes, with the page automatically refreshed every 10 minutes)

About weather observations | Map of weather stations | Latest weather observations for VIC | Other Formats
Station Details ID: 086376 Name: FAWKNER BEACON Lat: -37.95 Lon: 144.93 Height: 17.0 m
Data from the previous 72 hours. | See also: Recent months for locations in Victoria
Date/Time
EST
Temp
°C
App
Temp
°C
Dew
Point
°C
Rel
Hum
%
Delta-T
°C
Wind Press
QNH
hPa
Press
MSL
hPa
Rain since
9am
mm
Dir  Spd
km/h
Gust
km/h
Spd
kts
Gust
kts
22/05:30pm - - - - - SSW 19 22 10 12 - - -
22/05:00pm - - - - - SSW 22 26 12 14 - - -
22/04:30pm - - - - - SSW 24 28 13 15 - - -
22/04:00pm - - - - - SSW 26 32 14 17 - - -
22/03:30pm - - - - - SSW 30 33 16 18 - - -
22/03:00pm - - - - - SSW 28 33 15 18 - - -
22/02:30pm - - - - - SSW 28 32 15 17 - - -
22/02:00pm - - - - - SW 32 35 17 19 - - -
22/01:30pm - - - - - SSW 24 30 13 16 - - -
22/01:00pm - - - - - SSW 20 24 11 13 - - -
22/12:30pm - - - - - S 15 20 8 11 - - -
22/12:00pm - - - - - SSW 15 22 8 12 - - -
22/11:30am - - - - - SSW 11 15 6 8 - - -
22/11:00am - - - - - S 9 11 5 6 - - -
22/10:30am - - - - - WNW 4 6 2 3 - - -
22/10:00am - - - - - WNW 6 7 3 4 - - -
22/09:30am - - - - - NW 6 7 3 4 - - -
22/09:00am - - - - - NW 7 9 4 5 - - -
22/08:30am - - - - - NNW 9 13 5 7 - - -
22/08:00am - - - - - N 15 17 8 9 - - -
22/07:30am - - - - - N 20 22 11 12 - - -
22/07:00am - - - - - N 20 24 11 13 - - -
22/06:30am - - - - - N 17 20 9 11 - - -
22/06:00am - - - - - NNW 13 17 7 9 - - -
22/05:30am - - - - - NNW 11 15 6 8 - - -
22/05:00am - - - - - NNW 9 13 5 7 - - -
22/04:30am - - - - - NNW 11 13 6 7 - - -
22/04:00am - - - - - NNW 13 15 7 8 - - -
22/03:30am - - - - - NW 11 13 6 7 - - -
22/03:00am - - - - - NW 9 13 5 7 - - -
22/02:30am - - - - - WNW 13 17 7 9 - - -
22/02:00am - - - - - W 15 17 8 9 - - -
22/01:30am - - - - - WSW 15 20 8 11 - - -
22/01:00am - - - - - W 11 15 6 8 - - -
22/12:30am - - - - - SW 15 20 8 11 - - -
22/12:00am - - - - - WSW 13 17 7 9 - - -
 
Date/Time
EST
Temp
°C
App
Temp
°C
Dew
Point
°C
Rel
Hum
%
Delta-T
°C
Wind Press
QNH
hPa
Press
MSL
hPa
Rain since
9am
mm
Dir  Spd
km/h
Gust
km/h
Spd
kts
Gust
kts
21/11:30pm - - - - - NW 7 11 4 6 - - -
21/11:00pm - - - - - N 15 15 8 8 - - -
21/10:30pm - - - - - N 11 13 6 7 - - -
21/10:00pm - - - - - N 11 13 6 7 - - -
21/09:30pm - - - - - NNE 9 11 5 6 - - -
21/09:00pm - - - - - NE 13 13 7 7 - - -
21/08:30pm - - - - - ENE 13 15 7 8 - - -
21/08:00pm - - - - - ESE 9 11 5 6 - - -
21/07:30pm - - - - - ESE 11 15 6 8 - - -
21/07:00pm - - - - - ESE 9 13 5 7 - - -
21/06:30pm - - - - - ESE 11 13 6 7 - - -
21/06:00pm - - - - - ESE 7 9 4 5 - - -
21/05:30pm - - - - - SE 7 11 4 6 - - -
21/05:00pm - - - - - SE 9 11 5 6 - - -
21/04:30pm - - - - - SSE 11 13 6 7 - - -
21/04:00pm - - - - - SE 9 13 5 7 - - -
21/03:30pm - - - - - SSE 11 13 6 7 - - -
21/03:00pm - - - - - SE 9 11 5 6 - - -
21/02:30pm - - - - - SE 7 9 4 5 - - -
21/02:00pm - - - - - E 9 11 5 6 - - -
21/01:30pm - - - - - E 7 9 4 5 - - -
21/01:00pm - - - - - ESE 7 9 4 5 - - -
21/12:30pm - - - - - WSW 2 6 1 3 - - -
21/12:00pm - - - - - WNW 6 11 3 6 - - -
21/11:30am - - - - - CALM 0 6 0 3 - - -
21/11:00am - - - - - WSW 6 7 3 4 - - -
21/10:30am - - - - - WNW 11 13 6 7 - - -
21/10:00am - - - - - WNW 13 17 7 9 - - -
21/09:30am - - - - - WNW 15 20 8 11 - - -
21/09:00am - - - - - NNW 15 20 8 11 - - -
21/08:30am - - - - - N 17 22 9 12 - - -
21/08:00am - - - - - N 17 20 9 11 - - -
21/07:30am - - - - - NNW 15 20 8 11 - - -
21/07:00am - - - - - NNW 15 17 8 9 - - -
21/06:30am - - - - - NNW 13 17 7 9 - - -
21/06:00am - - - - - N 13 15 7 8 - - -
21/05:30am - - - - - NNW 13 17 7 9 - - -
21/05:00am - - - - - NNW 15 17 8 9 - - -
21/04:30am - - - - - N 17 20 9 11 - - -
21/04:00am - - - - - N 19 22 10 12 - - -
21/03:30am - - - - - N 15 17 8 9 - - -
21/03:00am - - - - - NNW 15 17 8 9 - - -
21/02:30am - - - - - NNW 13 15 7 8 - - -
21/02:00am - - - - - NW 11 13 6 7 - - -
21/01:30am - - - - - WNW 17 20 9 11 - - -
21/01:00am - - - - - WNW 15 17 8 9 - - -
21/12:30am - - - - - WNW 17 20 9 11 - - -
21/12:00am - - - - - W 15 17 8 9 - - -
 
Date/Time
EST
Temp
°C
App
Temp
°C
Dew
Point
°C
Rel
Hum
%
Delta-T
°C
Wind Press
QNH
hPa
Press
MSL
hPa
Rain since
9am
mm
Dir  Spd
km/h
Gust
km/h
Spd
kts
Gust
kts
20/11:30pm - - - - - WSW 17 20 9 11 - - -
20/11:00pm - - - - - W 20 26 11 14 - - -
20/10:30pm - - - - - SW 7 15 4 8 - - -
20/10:00pm - - - - - S 6 7 3 4 - - -
20/09:30pm - - - - - SSE 9 11 5 6 - - -
20/09:00pm - - - - - SSE 13 15 7 8 - - -
20/08:30pm - - - - - S 13 17 7 9 - - -
20/08:00pm - - - - - WNW 6 9 3 5 - - -
20/07:30pm - - - - - NW 4 6 2 3 - - -
20/07:00pm - - - - - W 4 6 2 3 - - -
20/06:30pm - - - - - CALM 0 0 0 0 - - -
20/06:00pm - - - - - NNE 4 6 2 3 - - -
20/05:30pm - - - - - NNE 6 7 3 4 - - -
20/05:00pm - - - - - NNE 6 7 3 4 - - -
20/04:30pm - - - - - ENE 6 7 3 4 - - -
20/04:00pm - - - - - NE 7 9 4 5 - - -
20/03:30pm - - - - - NE 9 11 5 6 - - -
20/03:00pm - - - - - ENE 7 9 4 5 - - -
20/02:30pm - - - - - NE 7 9 4 5 - - -
20/02:00pm - - - - - ENE 6 9 3 5 - - -
20/01:30pm - - - - - ESE 6 7 3 4 - - -
20/01:00pm - - - - - SE 6 7 3 4 - - -
20/12:30pm - - - - - SE 6 9 3 5 - - -
20/12:00pm - - - - - NE 4 9 2 5 - - -
20/11:30am - - - - - ENE 4 7 2 4 - - -
20/11:00am - - - - - CALM 0 0 0 0 - - -
20/10:30am - - - - - W 4 6 2 3 - - -
20/10:00am - - - - - W 7 9 4 5 - - -
20/09:30am - - - - - NW 9 13 5 7 - - -
20/09:00am - - - - - N 13 15 7 8 - - -
20/08:30am - - - - - N 13 17 7 9 - - -
20/08:00am - - - - - NNW 13 17 7 9 - - -
20/07:30am - - - - - NNW 13 17 7 9 - - -
20/07:00am - - - - - NNW 11 13 6 7 - - -
20/06:30am - - - - - NNW 15 20 8 11 - - -
20/06:00am - - - - - NW 13 17 7 9 - - -
20/05:30am - - - - - WNW 15 20 8 11 - - -
20/05:00am - - - - - WNW 15 20 8 11 - - -
20/04:30am - - - - - WNW 17 20 9 11 - - -
20/04:00am - - - - - NW 15 17 8 9 - - -
20/03:30am - - - - - NW 17 22 9 12 - - -
20/03:00am - - - - - NW 19 22 10 12 - - -
20/02:30am - - - - - WNW 20 22 11 12 - - -
20/02:00am - - - - - NW 20 24 11 13 - - -
20/01:30am - - - - - WNW 20 24 11 13 - - -
20/01:00am - - - - - WNW 15 20 8 11 - - -
20/12:30am - - - - - NW 15 17 8 9 - - -
20/12:00am - - - - - W 13 17 7 9 - - -
 
Date/Time
EST
Temp
°C
App
Temp
°C
Dew
Point
°C
Rel
Hum
%
Delta-T
°C
Wind Press
QNH
hPa
Press
MSL
hPa
Rain since
9am
mm
Dir  Spd
km/h
Gust
km/h
Spd
kts
Gust
kts
19/11:30pm - - - - - WNW 15 17 8 9 - - -
19/11:00pm - - - - - NW 15 20 8 11 - - -
19/10:30pm - - - - - NW 13 15 7 8 - - -
19/10:00pm - - - - - NW 9 13 5 7 - - -
19/09:30pm - - - - - NW 9 11 5 6 - - -
19/09:00pm - - - - - NW 9 15 5 8 - - -
19/08:30pm - - - - - NW 6 7 3 4 - - -
19/08:00pm - - - - - CALM 0 0 0 0 - - -
19/07:30pm - - - - - CALM 0 0 0 0 - - -
19/07:00pm - - - - - SE 2 4 1 2 - - -
19/06:30pm - - - - - SSE 6 9 3 5 - - -
19/06:00pm - - - - - SSE 6 7 3 4 - - -

Other Formats:

Comma delimited format used in spreadsheet applications
http://www.bom.gov.au/fwo/IDV60801/IDV60801.95872.axf

JavaScript Object Notation format (JSON) in row-major order
http://www.bom.gov.au/fwo/IDV60801/IDV60801.95872.json